createdAt,value
2018-12-16T00:01:14.956Z,80.70
2018-12-16T00:03:42.461Z,81.10
2018-12-16T00:06:09.941Z,80.80
2018-12-16T00:08:37.407Z,80.90
2018-12-16T00:11:04.866Z,81.10
2018-12-16T00:13:32.462Z,81.10
2018-12-16T00:15:59.902Z,81.10
2018-12-16T00:18:27.325Z,80.90
2018-12-16T00:20:54.758Z,80.90
2018-12-16T00:23:22.193Z,81.10
2018-12-16T00:25:49.666Z,81.10
2018-12-16T00:28:17.141Z,81.00
2018-12-16T00:30:44.581Z,81.30
2018-12-16T00:33:12.021Z,81.30
2018-12-16T00:35:39.563Z,81.30
2018-12-16T00:38:07.020Z,81.30
2018-12-16T00:40:34.449Z,81.60
2018-12-16T00:43:01.886Z,81.60
2018-12-16T00:45:29.314Z,81.50
2018-12-16T00:47:56.766Z,81.50
2018-12-16T00:50:24.234Z,81.40
2018-12-16T00:52:51.673Z,81.80
2018-12-16T00:55:19.138Z,81.50
2018-12-16T00:57:46.606Z,81.60
2018-12-16T01:00:14.294Z,81.60
2018-12-16T01:02:42.718Z,81.80
2018-12-16T01:05:10.558Z,81.60
2018-12-16T01:07:38.045Z,81.90
2018-12-16T01:10:07.513Z,81.70
2018-12-16T01:12:34.978Z,81.90
2018-12-16T01:15:02.492Z,81.90
2018-12-16T01:17:29.942Z,81.80
2018-12-16T01:19:57.391Z,82.00
2018-12-16T01:22:24.842Z,81.90
2018-12-16T01:24:52.303Z,81.80
2018-12-16T01:27:19.798Z,81.70
2018-12-16T01:29:47.242Z,82.00
2018-12-16T01:32:14.666Z,82.00
2018-12-16T01:34:42.245Z,81.90
2018-12-16T01:37:09.769Z,82.00
2018-12-16T01:39:37.304Z,81.90
2018-12-16T01:42:04.866Z,82.10
2018-12-16T01:44:32.317Z,82.10
2018-12-16T01:46:59.866Z,82.10
2018-12-16T01:49:27.298Z,81.90
2018-12-16T01:51:54.754Z,82.00
2018-12-16T01:54:22.211Z,81.90
2018-12-16T01:56:49.659Z,81.90
2018-12-16T01:59:17.134Z,81.90
2018-12-16T02:01:46.522Z,81.90
2018-12-16T02:04:13.971Z,82.00
2018-12-16T02:06:41.415Z,81.90
2018-12-16T02:09:10.785Z,81.90
2018-12-16T02:11:38.238Z,82.40
2018-12-16T02:14:05.715Z,82.60
2018-12-16T02:16:33.326Z,82.40
2018-12-16T02:19:00.806Z,82.80
2018-12-16T02:21:28.231Z,83.10
2018-12-16T02:23:55.665Z,83.20
2018-12-16T02:26:23.117Z,83.50
2018-12-16T02:28:50.548Z,83.90
2018-12-16T02:31:17.983Z,84.10
2018-12-16T02:33:45.455Z,84.30
2018-12-16T02:36:12.986Z,85.00
2018-12-16T02:38:40.434Z,86.00
2018-12-16T02:41:07.984Z,87.60
2018-12-16T02:43:35.931Z,88.80
2018-12-16T02:46:03.515Z,88.90
2018-12-16T02:48:31.061Z,89.70
2018-12-16T02:50:58.522Z,90.30
2018-12-16T02:53:26.002Z,91.20
2018-12-16T02:55:53.458Z,90.50
2018-12-16T02:58:20.890Z,90.90
2018-12-16T03:00:48.408Z,91.20
2018-12-16T03:03:15.850Z,91.20
2018-12-16T03:05:43.311Z,91.60
2018-12-16T03:08:10.738Z,91.20
2018-12-16T03:10:38.218Z,92.20
2018-12-16T03:13:06.506Z,92.00
2018-12-16T03:15:34.074Z,92.10
2018-12-16T03:18:01.498Z,91.80
2018-12-16T03:20:28.978Z,91.60
2018-12-16T03:22:56.411Z,91.00
2018-12-16T03:25:23.870Z,91.30
2018-12-16T03:27:51.358Z,91.40
2018-12-16T03:30:18.836Z,90.90
2018-12-16T03:32:46.289Z,91.20
2018-12-16T03:35:13.846Z,91.90
2018-12-16T03:37:41.390Z,92.70
2018-12-16T03:40:08.873Z,92.80
2018-12-16T03:42:36.291Z,92.00
2018-12-16T03:45:04.075Z,91.70
2018-12-16T03:47:31.523Z,91.30
2018-12-16T03:49:59.061Z,91.40
2018-12-16T03:52:26.530Z,91.50
2018-12-16T03:54:53.986Z,92.20
2018-12-16T03:57:21.429Z,92.30
2018-12-16T03:59:48.870Z,92.00
2018-12-16T04:02:16.318Z,92.30
2018-12-16T04:04:43.834Z,93.10
2018-12-16T04:07:11.267Z,93.70
2018-12-16T04:09:38.717Z,94.10
2018-12-16T04:12:06.190Z,94.60
2018-12-16T04:14:33.622Z,95.10
2018-12-16T04:17:01.063Z,95.40
2018-12-16T04:19:28.526Z,96.10
2018-12-16T04:21:56.050Z,96.10
2018-12-16T04:24:23.488Z,96.40
2018-12-16T04:26:50.943Z,97.00
2018-12-16T04:29:18.475Z,97.50
2018-12-16T04:31:46.014Z,97.50
2018-12-16T04:34:13.446Z,97.30
2018-12-16T04:36:40.907Z,97.50
2018-12-16T04:39:08.434Z,97.50
2018-12-16T04:41:35.900Z,97.10
2018-12-16T04:44:03.442Z,96.80
2018-12-16T04:46:30.877Z,97.20
2018-12-16T04:48:58.305Z,97.00
2018-12-16T04:51:25.754Z,96.90
2018-12-16T04:53:53.178Z,97.20
2018-12-16T04:56:20.612Z,97.80
2018-12-16T04:58:48.065Z,97.80
2018-12-16T05:01:15.534Z,98.00
2018-12-16T05:03:42.977Z,98.10
2018-12-16T05:06:10.471Z,98.40
2018-12-16T05:08:37.927Z,98.00
2018-12-16T05:11:05.373Z,98.20
2018-12-16T05:13:32.858Z,98.20
2018-12-16T05:16:00.339Z,98.10
2018-12-16T05:18:27.819Z,97.90
2018-12-16T05:20:55.256Z,97.80
2018-12-16T05:23:22.689Z,97.70
2018-12-16T05:25:50.168Z,97.70
2018-12-16T05:28:17.693Z,97.70
2018-12-16T05:30:45.157Z,97.20
2018-12-16T05:33:12.851Z,97.40
2018-12-16T05:35:40.286Z,97.90
2018-12-16T05:38:07.830Z,98.00
2018-12-16T05:40:35.255Z,97.40
2018-12-16T05:43:02.719Z,97.60
2018-12-16T05:45:30.142Z,97.20
2018-12-16T05:47:57.606Z,97.60
2018-12-16T05:50:25.042Z,97.30
2018-12-16T05:52:52.470Z,97.20
2018-12-16T05:55:20.026Z,97.00
2018-12-16T05:57:47.464Z,97.30
2018-12-16T06:00:14.997Z,96.90
2018-12-16T06:02:42.440Z,97.30
2018-12-16T06:05:09.918Z,97.00
2018-12-16T06:07:37.353Z,97.70
2018-12-16T06:10:05.939Z,97.80
2018-12-16T06:12:33.390Z,97.50
2018-12-16T06:15:00.829Z,97.70
2018-12-16T06:17:28.284Z,97.50
2018-12-16T06:19:55.709Z,97.70
2018-12-16T06:22:23.163Z,97.10
2018-12-16T06:24:50.603Z,97.70
2018-12-16T06:27:18.045Z,97.60
2018-12-16T06:29:45.806Z,97.50
2018-12-16T06:32:13.249Z,96.90
2018-12-16T06:34:40.682Z,96.50
2018-12-16T06:37:08.161Z,96.00
2018-12-16T06:39:35.674Z,96.10
2018-12-16T06:42:03.167Z,96.60
2018-12-16T06:44:30.614Z,96.30
2018-12-16T06:46:58.071Z,96.50
2018-12-16T06:49:26.148Z,96.60
2018-12-16T06:51:53.609Z,96.60
2018-12-16T06:54:21.067Z,96.40
2018-12-16T06:56:48.502Z,96.30
2018-12-16T06:59:15.943Z,95.80
2018-12-16T07:01:43.422Z,95.90
2018-12-16T07:04:10.846Z,96.20
2018-12-16T07:06:38.304Z,95.60
2018-12-16T07:09:05.977Z,95.50
2018-12-16T07:11:33.494Z,95.70
2018-12-16T07:14:00.924Z,95.90
2018-12-16T07:16:28.384Z,96.10
2018-12-16T07:18:56.034Z,96.10
2018-12-16T07:21:23.545Z,95.90
2018-12-16T07:23:50.970Z,95.80
2018-12-16T07:26:18.398Z,95.90
2018-12-16T07:28:45.927Z,95.60
2018-12-16T07:31:13.372Z,95.70
2018-12-16T07:33:40.874Z,95.60
2018-12-16T07:36:08.334Z,96.00
2018-12-16T07:38:35.792Z,96.00
2018-12-16T07:41:03.339Z,95.90
2018-12-16T07:43:30.774Z,96.10
2018-12-16T07:45:58.223Z,96.10
2018-12-16T07:48:25.870Z,96.10
2018-12-16T07:50:53.448Z,96.30
2018-12-16T07:53:20.951Z,96.10
2018-12-16T07:55:48.401Z,95.50
2018-12-16T07:58:15.834Z,95.90
2018-12-16T08:00:43.274Z,95.80
2018-12-16T08:03:10.736Z,95.80
2018-12-16T08:05:38.261Z,96.40
2018-12-16T08:08:05.764Z,97.00
2018-12-16T08:10:33.272Z,97.50
2018-12-16T08:13:00.715Z,97.50
2018-12-16T08:15:28.138Z,97.50
2018-12-16T08:17:55.594Z,98.20
2018-12-16T08:20:23.046Z,98.10
2018-12-16T08:22:50.474Z,98.40
2018-12-16T08:25:17.898Z,98.80
2018-12-16T08:27:45.338Z,99.70
2018-12-16T08:30:12.819Z,99.90
2018-12-16T08:32:40.562Z,99.90
2018-12-16T08:35:08.046Z,99.90
2018-12-16T08:37:35.509Z,99.90
2018-12-16T08:40:03.191Z,99.90
2018-12-16T08:42:30.650Z,99.90
2018-12-16T08:44:58.074Z,99.90
2018-12-16T08:47:25.545Z,99.90
2018-12-16T08:49:53.195Z,96.20
2018-12-16T08:52:20.632Z,97.20
2018-12-16T08:54:48.086Z,97.70
2018-12-16T08:57:15.548Z,98.40
2018-12-16T08:59:42.998Z,98.50
2018-12-16T09:02:10.490Z,99.10
2018-12-16T09:04:37.930Z,99.50
2018-12-16T09:07:05.410Z,99.90
2018-12-16T09:09:33.746Z,99.90
2018-12-16T09:12:01.222Z,99.90
2018-12-16T09:14:28.651Z,99.90
2018-12-16T09:16:56.774Z,99.90
2018-12-16T09:19:24.214Z,99.70
2018-12-16T09:21:51.674Z,99.70
2018-12-16T09:24:19.132Z,99.40
2018-12-16T09:26:47.087Z,99.30
2018-12-16T09:29:14.517Z,99.70
2018-12-16T09:31:41.973Z,99.90
2018-12-16T09:34:09.473Z,99.70
2018-12-16T09:36:37.070Z,99.90
2018-12-16T09:39:06.250Z,99.50
2018-12-16T09:41:33.682Z,99.40
2018-12-16T09:44:01.147Z,99.30
2018-12-16T09:46:30.038Z,99.60
2018-12-16T09:48:57.694Z,99.60
2018-12-16T09:51:25.154Z,99.40
2018-12-16T09:53:52.591Z,99.50
2018-12-16T09:56:20.020Z,99.40
2018-12-16T09:58:47.457Z,99.40
2018-12-16T10:01:14.910Z,99.00
2018-12-16T10:03:42.372Z,98.60
2018-12-16T10:06:09.897Z,98.70
2018-12-16T10:08:37.354Z,98.90
2018-12-16T10:11:04.812Z,98.50
2018-12-16T10:13:32.249Z,98.70
2018-12-16T10:15:59.662Z,98.50
2018-12-16T10:18:27.443Z,98.10
2018-12-16T10:20:54.982Z,97.90
2018-12-16T10:23:22.410Z,97.60
2018-12-16T10:25:49.889Z,98.00
2018-12-16T10:28:17.322Z,98.20
2018-12-16T10:30:44.773Z,97.90
2018-12-16T10:33:12.236Z,98.20
2018-12-16T10:35:39.702Z,98.30
2018-12-16T10:38:07.134Z,97.70
2018-12-16T10:40:34.582Z,97.50
2018-12-16T10:43:02.038Z,97.20
2018-12-16T10:45:29.505Z,97.40
2018-12-16T10:47:56.997Z,97.80
2018-12-16T10:50:24.442Z,98.00
2018-12-16T10:52:51.880Z,97.90
2018-12-16T10:55:19.320Z,97.60
2018-12-16T10:57:46.781Z,97.80
2018-12-16T11:00:19.833Z,97.60
2018-12-16T11:02:47.285Z,97.20
2018-12-16T11:05:15.161Z,97.20
2018-12-16T11:07:42.598Z,97.20
2018-12-16T11:10:10.077Z,97.10
2018-12-16T11:12:38.025Z,96.80
2018-12-16T11:15:05.690Z,97.20
2018-12-16T11:17:33.117Z,97.10
2018-12-16T11:20:00.553Z,97.20
2018-12-16T11:22:27.986Z,97.10
2018-12-16T11:24:55.438Z,97.60
2018-12-16T11:27:22.939Z,98.30
2018-12-16T11:29:50.394Z,98.40
2018-12-16T11:32:17.850Z,98.50
2018-12-16T11:34:45.286Z,99.10
2018-12-16T11:37:12.742Z,98.60
2018-12-16T11:39:40.206Z,98.50
2018-12-16T11:42:07.648Z,98.90
2018-12-16T11:44:35.181Z,98.60
2018-12-16T11:47:02.602Z,99.00
2018-12-16T11:49:30.083Z,99.20
2018-12-16T11:51:57.533Z,99.10
2018-12-16T11:54:24.985Z,99.10
2018-12-16T11:56:52.434Z,99.10
2018-12-16T11:59:19.882Z,99.00
2018-12-16T12:01:47.349Z,99.60
2018-12-16T12:04:14.781Z,99.90
2018-12-16T12:06:42.226Z,99.90
2018-12-16T12:09:09.654Z,99.80
2018-12-16T12:11:37.076Z,99.90
2018-12-16T12:14:04.550Z,99.80
2018-12-16T12:16:32.002Z,99.40
2018-12-16T12:19:00.102Z,99.30
2018-12-16T12:21:27.571Z,99.70
2018-12-16T12:23:55.552Z,99.40
2018-12-16T12:26:23.101Z,99.30
2018-12-16T12:28:50.550Z,99.50
2018-12-16T12:31:18.207Z,99.50
2018-12-16T12:33:45.662Z,99.90
2018-12-16T12:36:13.310Z,99.90
2018-12-16T12:38:40.741Z,99.90
2018-12-16T12:41:08.190Z,99.90
2018-12-16T12:43:35.623Z,99.90
2018-12-16T12:46:03.177Z,99.90
2018-12-16T12:48:30.618Z,99.90
2018-12-16T12:50:58.074Z,99.90
2018-12-16T12:53:25.522Z,99.90
2018-12-16T12:55:52.974Z,99.90
2018-12-16T12:58:20.426Z,99.90
2018-12-16T13:00:47.881Z,99.90
2018-12-16T13:03:15.306Z,99.90
2018-12-16T13:05:42.736Z,99.90
2018-12-16T13:08:10.162Z,99.80
2018-12-16T13:10:37.614Z,99.90
2018-12-16T13:13:05.041Z,99.90
2018-12-16T13:15:32.494Z,99.90
2018-12-16T13:17:59.929Z,99.90
2018-12-16T13:20:27.365Z,99.90
2018-12-16T13:22:54.787Z,99.90
2018-12-16T13:25:35.729Z,99.90
2018-12-16T13:28:03.330Z,99.90
2018-12-16T13:30:30.786Z,99.90
2018-12-16T13:32:58.262Z,99.90
2018-12-16T13:35:25.700Z,99.90
2018-12-16T13:37:53.142Z,99.90
2018-12-16T13:40:20.569Z,99.90
2018-12-16T13:42:47.999Z,99.90
2018-12-16T13:45:15.469Z,99.90
2018-12-16T13:47:42.933Z,99.90
2018-12-16T13:50:10.406Z,99.90
2018-12-16T13:52:37.854Z,99.90
2018-12-16T13:55:05.646Z,99.90
2018-12-16T13:57:34.298Z,99.90
2018-12-16T14:00:01.732Z,99.90
2018-12-16T14:02:29.149Z,99.90
2018-12-16T14:04:56.609Z,99.90
2018-12-16T14:07:24.032Z,99.90
2018-12-16T14:09:51.467Z,99.90
2018-12-16T14:12:18.913Z,99.90
2018-12-16T14:14:46.348Z,99.90
2018-12-16T14:17:13.810Z,99.90
2018-12-16T14:19:41.290Z,99.90
2018-12-16T14:22:08.751Z,99.90
2018-12-16T14:24:36.207Z,99.90
2018-12-16T14:27:03.650Z,99.90
2018-12-16T14:29:31.118Z,99.90
2018-12-16T14:31:58.566Z,99.90
2018-12-16T14:34:26.004Z,99.90
2018-12-16T14:36:53.458Z,99.90
2018-12-16T14:39:20.888Z,99.90
2018-12-16T14:41:48.342Z,99.90
2018-12-16T14:44:15.790Z,99.90
2018-12-16T14:46:43.242Z,99.90
2018-12-16T14:49:10.669Z,99.90
2018-12-16T14:51:38.138Z,99.90
2018-12-16T14:54:05.574Z,99.90
2018-12-16T14:56:33.010Z,99.90
2018-12-16T14:59:00.437Z,99.90
2018-12-16T15:01:27.978Z,99.90
2018-12-16T15:03:55.406Z,99.90
2018-12-16T15:06:22.862Z,99.90
2018-12-16T15:08:50.283Z,99.90
2018-12-16T15:11:17.798Z,99.90
2018-12-16T15:13:45.274Z,99.90
2018-12-16T15:16:12.742Z,99.90
2018-12-16T15:18:40.254Z,99.90
2018-12-16T15:21:07.687Z,99.90
2018-12-16T15:23:35.148Z,99.90
2018-12-16T15:26:02.646Z,99.90
2018-12-16T15:28:30.099Z,99.90
2018-12-16T15:30:57.537Z,99.90
2018-12-16T15:33:24.980Z,99.90
2018-12-16T15:35:52.465Z,99.90
2018-12-16T15:38:19.893Z,99.90
2018-12-16T15:40:47.322Z,99.90
2018-12-16T15:43:14.811Z,99.90
2018-12-16T15:45:42.261Z,99.90
2018-12-16T15:48:09.678Z,99.90
2018-12-16T15:50:37.187Z,99.90
2018-12-16T15:53:04.662Z,99.90
2018-12-16T15:55:32.114Z,99.90
2018-12-16T15:57:59.558Z,99.90
2018-12-16T16:00:27.029Z,99.90
2018-12-16T16:02:54.565Z,99.90
2018-12-16T16:05:21.998Z,99.90
2018-12-16T16:07:49.430Z,99.90
2018-12-16T16:10:16.889Z,99.90
2018-12-16T16:12:44.350Z,99.90
2018-12-16T16:15:11.826Z,99.90
2018-12-16T16:17:39.290Z,99.90
2018-12-16T16:20:06.954Z,99.90
2018-12-16T16:22:34.393Z,99.90
2018-12-16T16:25:01.842Z,99.90
2018-12-16T16:27:29.275Z,99.90
2018-12-16T16:29:56.698Z,99.90
2018-12-16T16:32:24.283Z,99.90
2018-12-16T16:34:51.682Z,99.90
2018-12-16T16:37:19.138Z,99.90
2018-12-16T16:39:46.586Z,99.90
2018-12-16T16:42:14.038Z,99.90
2018-12-16T16:44:41.527Z,99.90
2018-12-16T16:47:09.046Z,99.90
2018-12-16T16:49:36.493Z,99.90
2018-12-16T16:52:03.943Z,99.90
2018-12-16T16:54:31.394Z,99.90
2018-12-16T16:56:58.926Z,99.90
2018-12-16T16:59:26.350Z,99.90
2018-12-16T17:01:53.814Z,99.90
2018-12-16T17:04:21.238Z,99.90
2018-12-16T17:06:48.781Z,99.90
2018-12-16T17:09:16.314Z,99.90
2018-12-16T17:11:43.798Z,99.90
2018-12-16T17:14:11.242Z,99.90
2018-12-16T17:16:38.797Z,99.90
2018-12-16T17:19:06.690Z,99.90
2018-12-16T17:21:34.297Z,99.90
2018-12-16T17:24:01.749Z,99.90
2018-12-16T17:26:30.205Z,99.90
2018-12-16T17:28:57.926Z,99.90
2018-12-16T17:31:25.385Z,99.90
2018-12-16T17:33:52.821Z,99.90
2018-12-16T17:36:20.273Z,99.90
2018-12-16T17:38:47.702Z,99.90
2018-12-16T17:41:15.162Z,99.90
2018-12-16T17:43:42.584Z,99.90
2018-12-16T17:46:10.016Z,99.90
2018-12-16T17:48:37.446Z,99.90
2018-12-16T17:51:04.888Z,99.90
2018-12-16T17:53:32.400Z,99.90
2018-12-16T17:56:00.234Z,99.90
2018-12-16T17:58:27.910Z,99.90
2018-12-16T18:00:55.337Z,99.90
2018-12-16T18:03:22.776Z,99.90
2018-12-16T18:05:50.202Z,99.90
2018-12-16T18:08:17.629Z,99.90
2018-12-16T18:10:45.076Z,99.90
2018-12-16T18:13:12.509Z,99.90
2018-12-16T18:15:39.934Z,99.90
2018-12-16T18:18:07.401Z,99.90
2018-12-16T18:20:34.877Z,99.90
2018-12-16T18:23:02.352Z,99.90
2018-12-16T18:25:29.875Z,99.90
2018-12-16T18:27:57.311Z,99.90
2018-12-16T18:30:24.777Z,99.90
2018-12-16T18:32:52.537Z,99.90
2018-12-16T18:35:20.051Z,99.90
2018-12-16T18:37:47.498Z,99.90
2018-12-16T18:40:15.046Z,99.90
2018-12-16T18:42:42.530Z,99.90
2018-12-16T18:45:09.982Z,99.90
2018-12-16T18:47:37.410Z,99.90
2018-12-16T18:50:07.178Z,99.90
2018-12-16T18:52:34.629Z,99.90
2018-12-16T18:55:02.098Z,99.90
2018-12-16T18:57:29.530Z,99.90
2018-12-16T18:59:57.461Z,95.30
2018-12-16T19:02:24.927Z,91.80
2018-12-16T19:04:52.442Z,93.50
2018-12-16T19:07:19.990Z,95.00
2018-12-16T19:09:47.429Z,96.40
2018-12-16T19:12:14.906Z,97.80
2018-12-16T19:14:42.763Z,98.60
2018-12-16T19:17:10.217Z,99.40
2018-12-16T19:19:37.654Z,99.90
2018-12-16T19:22:05.238Z,99.90
2018-12-16T19:24:32.678Z,99.90
2018-12-16T19:27:00.130Z,99.90
2018-12-16T19:29:27.581Z,99.90
2018-12-16T19:31:55.037Z,99.90
2018-12-16T19:34:22.495Z,99.90
2018-12-16T19:36:49.987Z,99.90
2018-12-16T19:39:17.522Z,99.90
2018-12-16T19:41:45.054Z,99.90
2018-12-16T19:44:12.550Z,99.90
2018-12-16T19:46:39.994Z,99.90
2018-12-16T19:49:07.570Z,99.90
2018-12-16T19:51:34.992Z,99.90
2018-12-16T19:54:02.426Z,99.90
2018-12-16T19:56:29.931Z,99.90
2018-12-16T19:58:57.365Z,99.90
2018-12-16T20:01:24.835Z,99.90
2018-12-16T20:03:58.156Z,99.90
2018-12-16T20:06:31.198Z,99.90
2018-12-16T20:08:58.638Z,99.90
2018-12-16T20:11:26.086Z,99.90
2018-12-16T20:13:53.524Z,99.90
2018-12-16T20:16:20.990Z,99.90
2018-12-16T20:18:48.466Z,99.90
2018-12-16T20:21:16.850Z,99.90
2018-12-16T20:23:44.598Z,99.90
2018-12-16T20:26:12.043Z,99.90
2018-12-16T20:28:39.476Z,99.90
2018-12-16T20:31:06.959Z,99.90
2018-12-16T20:33:34.428Z,99.90
2018-12-16T20:36:01.874Z,99.90
2018-12-16T20:38:29.362Z,99.90
2018-12-16T20:40:56.831Z,99.90
2018-12-16T20:43:24.287Z,99.90
2018-12-16T20:45:51.757Z,99.90
2018-12-16T20:48:19.194Z,99.90
2018-12-16T20:50:46.648Z,99.90
2018-12-16T20:53:14.202Z,99.90
2018-12-16T20:55:41.654Z,99.90
2018-12-16T20:58:09.306Z,99.90
2018-12-16T21:00:36.776Z,99.90
2018-12-16T21:03:04.223Z,99.90
2018-12-16T21:05:31.666Z,99.90
2018-12-16T21:07:59.221Z,99.90
2018-12-16T21:10:26.667Z,99.90
2018-12-16T21:13:00.789Z,99.90
2018-12-16T21:15:34.069Z,99.90
2018-12-16T21:18:07.139Z,99.90
2018-12-16T21:20:34.578Z,99.90
2018-12-16T21:23:02.129Z,99.90
2018-12-16T21:25:29.666Z,99.90
2018-12-16T21:27:57.085Z,99.90
2018-12-16T21:30:24.538Z,99.90
2018-12-16T21:32:51.962Z,99.90
2018-12-16T21:35:19.419Z,99.90
2018-12-16T21:37:46.848Z,99.90
2018-12-16T21:40:14.400Z,99.90
2018-12-16T21:42:41.817Z,99.90
2018-12-16T21:45:09.322Z,99.90
2018-12-16T21:47:36.747Z,99.90
2018-12-16T21:50:05.026Z,99.90
2018-12-16T21:52:32.475Z,99.90
2018-12-16T21:54:59.911Z,99.90
2018-12-16T21:57:33.089Z,99.90
2018-12-16T21:59:56.749Z,99.90
2018-12-16T22:02:24.198Z,99.90
2018-12-16T22:04:51.646Z,99.90
2018-12-16T22:07:19.074Z,99.90
2018-12-16T22:09:46.509Z,99.90
2018-12-16T22:12:13.939Z,99.90
2018-12-16T22:14:41.370Z,99.90
2018-12-16T22:17:08.828Z,99.90
2018-12-16T22:19:36.261Z,99.90
2018-12-16T22:22:03.707Z,99.90
2018-12-16T22:24:31.246Z,99.90
2018-12-16T22:26:58.686Z,99.90
2018-12-16T22:29:26.119Z,99.90
2018-12-16T22:31:53.548Z,99.90
2018-12-16T22:34:21.041Z,99.90
2018-12-16T22:36:48.522Z,99.90
2018-12-16T22:39:16.021Z,99.90
2018-12-16T22:41:43.540Z,99.90
2018-12-16T22:44:11.228Z,99.90
2018-12-16T22:46:38.836Z,99.90
2018-12-16T22:49:06.371Z,99.90
2018-12-16T22:51:33.909Z,99.90
2018-12-16T22:54:01.334Z,99.90
2018-12-16T22:56:29.078Z,99.90
2018-12-16T22:58:56.503Z,99.90
2018-12-16T23:01:23.958Z,99.90
2018-12-16T23:03:51.402Z,99.90
2018-12-16T23:06:18.860Z,99.90
2018-12-16T23:08:46.282Z,99.90
2018-12-16T23:11:13.745Z,99.90
2018-12-16T23:13:41.185Z,99.90
2018-12-16T23:16:08.671Z,99.90
2018-12-16T23:18:36.137Z,99.90
2018-12-16T23:21:03.587Z,99.90
2018-12-16T23:23:31.010Z,99.90
2018-12-16T23:25:58.466Z,99.90
2018-12-16T23:28:25.910Z,99.90
2018-12-16T23:30:53.342Z,99.90
2018-12-16T23:33:20.776Z,99.90
2018-12-16T23:35:48.217Z,99.90
2018-12-16T23:38:16.486Z,99.90
2018-12-16T23:40:43.925Z,99.90
2018-12-16T23:43:11.370Z,99.90
2018-12-16T23:45:38.794Z,99.90
2018-12-16T23:48:06.269Z,99.90
2018-12-16T23:50:33.826Z,99.90
2018-12-16T23:53:01.242Z,99.90
2018-12-16T23:55:28.674Z,99.90
2018-12-16T23:58:01.018Z,99.90
